Time;durP1;ratioP1;P1;durP2;ratioP2;P2;SDS_P1;SDS_P2;PMS_P1;PMS_P2;Temp;Humidity;BMP_temperature;BMP_pressure;BME280_temperature;BME280_humidity;BME280_pressure;Samples;Min_cycle;Max_cycle;Signal;HPM_P1;HPM_P2
2022/07/10 00:01:50;;;;;;;;;;;14.10;99.90;;;;;;5032407;28;19978;-67
2022/07/10 00:04:17;;;;;;;;;;;14.10;99.90;;;;;;5032194;28;19979;-67
2022/07/10 00:06:46;;;;;;;;;;;14.00;99.90;;;;;;5032048;28;19925;-67
2022/07/10 00:09:13;;;;;;;;;;;14.10;99.90;;;;;;5031555;28;19925;-69
2022/07/10 00:11:41;;;;;;;;;;;14.00;99.90;;;;;;5032038;28;19928;-67
2022/07/10 00:14:08;;;;;;;;;;;13.90;99.90;;;;;;5032160;28;20507;-67
2022/07/10 00:16:36;;;;;;;;;;;13.80;99.90;;;;;;5032235;28;19933;-67
2022/07/10 00:19:02;;;;;;;;;;;13.80;99.90;;;;;;5031788;28;19925;-67
2022/07/10 00:21:29;;;;;;;;;;;13.80;99.90;;;;;;5032045;28;20466;-67
2022/07/10 00:23:56;;;;;;;;;;;13.70;99.90;;;;;;5031929;28;19929;-67
2022/07/10 00:26:22;;;;;;;;;;;13.80;99.90;;;;;;5031693;28;20435;-67
2022/07/10 00:28:51;;;;;;;;;;;13.70;99.90;;;;;;5031524;28;20351;-67
2022/07/10 00:31:17;;;;;;;;;;;13.60;99.90;;;;;;5031867;28;19925;-67
2022/07/10 00:33:44;;;;;;;;;;;13.50;99.90;;;;;;5031783;28;19925;-68
2022/07/10 00:36:11;;;;;;;;;;;13.40;99.90;;;;;;5031624;28;19979;-67
2022/07/10 00:38:38;;;;;;;;;;;13.30;99.90;;;;;;5031393;28;20351;-67
2022/07/10 00:41:05;;;;;;;;;;;13.40;99.90;;;;;;5031418;28;19925;-68
2022/07/10 00:43:51;;;;;;;;;;;13.30;99.90;;;;;;5031549;28;19976;-67
2022/07/10 00:46:20;;;;;;;;;;;13.30;99.90;;;;;;5031451;28;19960;-67
2022/07/10 00:48:46;;;;;;;;;;;13.30;99.90;;;;;;5031113;28;19925;-68
2022/07/10 00:51:13;;;;;;;;;;;13.30;99.90;;;;;;5031528;28;20358;-67
2022/07/10 00:53:40;;;;;;;;;;;13.20;99.90;;;;;;5031307;28;19925;-67
2022/07/10 00:56:07;;;;;;;;;;;13.30;99.90;;;;;;5031227;28;19925;-64
2022/07/10 00:58:35;;;;;;;;;;;13.20;99.90;;;;;;5031276;28;20008;-65
2022/07/10 01:01:02;;;;;;;;;;;13.20;99.90;;;;;;5030997;28;20384;-67
2022/07/10 01:03:30;;;;;;;;;;;13.20;99.90;;;;;;5031328;28;19929;-67
2022/07/10 01:05:57;;;;;;;;;;;13.20;99.90;;;;;;5030929;28;19929;-66
2022/07/10 01:08:23;;;;;;;;;;;13.20;99.90;;;;;;5031104;28;19929;-67
2022/07/10 01:10:50;;;;;;;;;;;13.30;99.90;;;;;;5031019;28;19925;-67
2022/07/10 01:13:17;;;;;;;;;;;13.40;99.90;;;;;;5031234;28;20020;-67
2022/07/10 01:15:44;;;;;;;;;;;13.50;99.90;;;;;;5031327;28;19962;-67
2022/07/10 01:18:11;;;;;;;;;;;13.50;99.90;;;;;;5031180;28;19956;-67
2022/07/10 01:20:39;;;;;;;;;;;13.60;99.90;;;;;;5030030;28;19929;-67
2022/07/10 01:23:07;;;;;;;;;;;13.70;99.90;;;;;;5030953;28;19959;-67
2022/07/10 01:25:34;;;;;;;;;;;13.80;99.90;;;;;;5031121;28;19925;-67
2022/07/10 01:28:01;;;;;;;;;;;13.70;99.90;;;;;;5031199;28;19926;-67
2022/07/10 01:30:28;;;;;;;;;;;13.80;99.90;;;;;;5030804;28;19925;-67
2022/07/10 01:32:54;;;;;;;;;;;13.80;99.90;;;;;;5030973;28;19933;-67
2022/07/10 01:35:21;;;;;;;;;;;13.80;99.90;;;;;;5030760;28;20450;-67
2022/07/10 01:37:48;;;;;;;;;;;13.80;99.90;;;;;;5031033;28;19925;-67
2022/07/10 01:40:16;;;;;;;;;;;13.70;99.90;;;;;;5030708;28;20024;-66
2022/07/10 01:42:43;;;;;;;;;;;13.70;99.90;;;;;;5030797;28;20286;-67
2022/07/10 01:45:10;;;;;;;;;;;13.70;99.90;;;;;;5030858;28;19929;-66
2022/07/10 01:47:37;;;;;;;;;;;13.70;99.90;;;;;;5030896;28;19929;-66
2022/07/10 01:50:05;;;;;;;;;;;13.70;99.90;;;;;;5030077;28;19972;-67
2022/07/10 01:52:31;;;;;;;;;;;13.70;99.90;;;;;;5030800;28;19926;-67
2022/07/10 01:54:58;;;;;;;;;;;13.70;99.90;;;;;;5030734;28;20343;-67
2022/07/10 01:57:26;;;;;;;;;;;13.70;99.90;;;;;;5031025;28;19944;-64
2022/07/10 01:59:53;;;;;;;;;;;13.70;99.90;;;;;;5058421;23;19924;-70
2022/07/10 02:02:21;;;;;;;;;;;13.80;99.90;;;;;;5050705;28;19925;-70
2022/07/10 02:04:46;;;;;;;;;;;13.80;99.90;;;;;;5050531;28;20457;-68
2022/07/10 02:07:14;;;;;;;;;;;13.80;99.90;;;;;;5050397;28;19921;-69
2022/07/10 02:09:41;;;;;;;;;;;13.80;99.90;;;;;;5050146;28;20388;-70
2022/07/10 02:12:08;;;;;;;;;;;13.80;99.90;;;;;;5050330;28;20455;-70
2022/07/10 02:14:36;;;;;;;;;;;13.80;99.90;;;;;;5050672;28;19924;-71
2022/07/10 02:17:03;;;;;;;;;;;13.90;99.90;;;;;;5050324;28;19925;-70
2022/07/10 02:19:30;;;;;;;;;;;13.90;99.90;;;;;;5050146;28;19932;-70
2022/07/10 02:21:57;;;;;;;;;;;13.90;99.90;;;;;;5050465;28;19933;-69
2022/07/10 02:24:24;;;;;;;;;;;13.90;99.90;;;;;;5050417;28;19932;-70
2022/07/10 02:26:51;;;;;;;;;;;13.90;99.90;;;;;;5050164;28;19925;-70
2022/07/10 02:29:18;;;;;;;;;;;13.90;99.90;;;;;;5050371;28;19928;-70
2022/07/10 02:31:46;;;;;;;;;;;13.80;99.90;;;;;;5050438;28;20023;-69
2022/07/10 02:34:14;;;;;;;;;;;13.90;99.90;;;;;;5053802;28;19925;-70
2022/07/10 02:36:41;;;;;;;;;;;13.90;99.90;;;;;;5053908;28;19925;-70
2022/07/10 02:39:08;;;;;;;;;;;13.80;99.90;;;;;;5053512;28;19925;-70
2022/07/10 02:41:35;;;;;;;;;;;13.80;99.90;;;;;;5053657;28;20396;-70
2022/07/10 02:44:02;;;;;;;;;;;13.80;99.90;;;;;;5053538;28;20457;-69
2022/07/10 02:46:29;;;;;;;;;;;13.80;99.90;;;;;;5053794;28;19925;-69
2022/07/10 02:48:57;;;;;;;;;;;13.80;99.90;;;;;;5053493;28;19928;-69
2022/07/10 02:51:24;;;;;;;;;;;13.80;99.90;;;;;;5053375;28;19928;-70
2022/07/10 02:53:51;;;;;;;;;;;13.70;99.90;;;;;;5053564;28;19948;-69
2022/07/10 02:56:17;;;;;;;;;;;13.70;99.90;;;;;;5053752;28;19925;-69
2022/07/10 02:58:44;;;;;;;;;;;13.80;99.90;;;;;;5053610;28;19924;-69
2022/07/10 03:01:11;;;;;;;;;;;13.80;99.90;;;;;;5052398;28;19955;-69
2022/07/10 03:03:38;;;;;;;;;;;13.70;99.90;;;;;;5052173;28;19982;-70
2022/07/10 03:06:06;;;;;;;;;;;13.70;99.90;;;;;;5051993;28;19978;-69
2022/07/10 03:08:33;;;;;;;;;;;13.70;99.90;;;;;;5052127;28;19925;-69
2022/07/10 03:11:00;;;;;;;;;;;13.70;99.90;;;;;;5052019;28;19925;-71
2022/07/10 03:13:26;;;;;;;;;;;13.60;99.90;;;;;;5052096;28;19932;-70
2022/07/10 03:15:54;;;;;;;;;;;13.60;99.90;;;;;;5052279;28;19925;-70
2022/07/10 03:18:21;;;;;;;;;;;13.50;99.90;;;;;;5052171;28;19924;-69
2022/07/10 03:20:48;;;;;;;;;;;13.50;99.90;;;;;;5051924;28;20277;-69
2022/07/10 03:23:16;;;;;;;;;;;13.50;99.90;;;;;;5052169;28;20561;-70
2022/07/10 03:25:43;;;;;;;;;;;13.40;99.90;;;;;;5051937;28;19924;-70
2022/07/10 03:28:09;;;;;;;;;;;13.40;99.90;;;;;;5051955;28;19931;-69
2022/07/10 03:30:36;;;;;;;;;;;13.40;99.90;;;;;;5051643;28;19931;-69
2022/07/10 03:33:03;;;;;;;;;;;13.40;99.90;;;;;;5051703;28;20335;-70
2022/07/10 03:35:31;;;;;;;;;;;13.40;99.90;;;;;;5051897;28;20019;-69
2022/07/10 03:37:57;;;;;;;;;;;13.40;99.90;;;;;;5051637;28;19964;-70
2022/07/10 03:40:26;;;;;;;;;;;13.40;99.90;;;;;;5051433;28;19954;-70
2022/07/10 03:42:53;;;;;;;;;;;13.40;99.90;;;;;;5051704;28;19931;-72
2022/07/10 03:45:20;;;;;;;;;;;13.40;99.90;;;;;;5050721;28;19925;-70
2022/07/10 03:47:47;;;;;;;;;;;13.40;99.90;;;;;;5051578;28;20442;-70
2022/07/10 03:50:13;;;;;;;;;;;13.50;99.90;;;;;;5051041;28;19940;-71
2022/07/10 03:52:40;;;;;;;;;;;13.50;99.90;;;;;;5051541;28;20397;-70
2022/07/10 03:55:07;;;;;;;;;;;13.50;99.90;;;;;;5051576;28;19929;-70
2022/07/10 04:00:26;;;;;;;;;;;13.60;99.90;;;;;;4967036;28;1815500;-70
2022/07/10 04:02:57;;;;;;;;;;;13.60;99.90;;;;;;5052284;28;19925;-70
2022/07/10 04:05:24;;;;;;;;;;;13.60;99.90;;;;;;5052244;28;19971;-70
2022/07/10 04:07:51;;;;;;;;;;;13.60;99.90;;;;;;5051652;28;20395;-70
2022/07/10 04:10:17;;;;;;;;;;;13.60;99.90;;;;;;5051693;28;19924;-70
2022/07/10 04:12:46;;;;;;;;;;;13.60;99.90;;;;;;5052120;28;19932;-70
2022/07/10 04:15:13;;;;;;;;;;;13.60;99.90;;;;;;5051941;28;19929;-71
2022/07/10 04:17:39;;;;;;;;;;;13.70;99.90;;;;;;5052002;28;19924;-69
2022/07/10 04:20:07;;;;;;;;;;;13.70;99.90;;;;;;5051631;28;19924;-70
2022/07/10 04:22:34;;;;;;;;;;;13.70;99.90;;;;;;5051684;28;19925;-70
2022/07/10 04:25:01;;;;;;;;;;;13.80;99.90;;;;;;5052087;28;19928;-69
2022/07/10 04:27:27;;;;;;;;;;;13.80;99.90;;;;;;5051624;28;19929;-70
2022/07/10 04:29:56;;;;;;;;;;;13.80;99.90;;;;;;5051571;28;19929;-70
2022/07/10 04:32:23;;;;;;;;;;;13.90;99.90;;;;;;5051614;28;19936;-69
2022/07/10 04:34:50;;;;;;;;;;;13.90;99.90;;;;;;5051701;28;19925;-71
2022/07/10 04:37:17;;;;;;;;;;;13.90;99.90;;;;;;5051333;28;20335;-70
2022/07/10 04:39:44;;;;;;;;;;;14.00;99.90;;;;;;5051272;28;19928;-70
2022/07/10 04:42:10;;;;;;;;;;;14.10;99.90;;;;;;5051629;28;20159;-70
2022/07/10 04:44:37;;;;;;;;;;;14.10;99.90;;;;;;5051433;28;20323;-70
2022/07/10 04:47:06;;;;;;;;;;;14.20;99.90;;;;;;5051577;28;19925;-71
2022/07/10 04:49:33;;;;;;;;;;;14.30;99.90;;;;;;5050907;28;20402;-70
2022/07/10 04:52:00;;;;;;;;;;;14.40;99.90;;;;;;5051334;28;20399;-70
2022/07/10 04:54:27;;;;;;;;;;;14.40;99.90;;;;;;5051304;28;19928;-70
2022/07/10 04:56:54;;;;;;;;;;;14.40;99.90;;;;;;5050486;28;20354;-70
2022/07/10 04:59:20;;;;;;;;;;;14.30;99.90;;;;;;5050849;28;19929;-70
2022/07/10 05:01:47;;;;;;;;;;;14.40;99.90;;;;;;5048502;28;20466;-70
2022/07/10 05:04:15;;;;;;;;;;;14.40;99.90;;;;;;5042244;28;19925;-70
2022/07/10 05:06:42;;;;;;;;;;;14.40;99.90;;;;;;5036299;28;19936;-70
2022/07/10 05:09:09;;;;;;;;;;;14.40;99.90;;;;;;5050839;28;19925;-70
2022/07/10 05:11:36;;;;;;;;;;;14.40;99.90;;;;;;5040555;28;19925;-70
2022/07/10 05:14:02;;;;;;;;;;;14.40;99.90;;;;;;5031478;28;19936;-69
2022/07/10 05:16:29;;;;;;;;;;;14.50;99.90;;;;;;5031388;28;19925;-70
2022/07/10 05:18:56;;;;;;;;;;;14.60;99.90;;;;;;5031412;28;19948;-69
2022/07/10 05:21:25;;;;;;;;;;;14.70;99.90;;;;;;5051039;28;19935;-70
2022/07/10 05:23:52;;;;;;;;;;;14.80;99.90;;;;;;5051098;28;19925;-70
2022/07/10 05:26:18;;;;;;;;;;;14.80;99.90;;;;;;5051241;28;20479;-70
2022/07/10 05:28:45;;;;;;;;;;;14.80;99.90;;;;;;5050647;28;19968;-69
2022/07/10 05:31:12;;;;;;;;;;;14.90;99.90;;;;;;5050948;28;19929;-70
2022/07/10 05:33:40;;;;;;;;;;;15.00;99.90;;;;;;5050889;28;19925;-70
2022/07/10 05:36:07;;;;;;;;;;;14.90;99.90;;;;;;5049599;28;20385;-71
2022/07/10 05:38:35;;;;;;;;;;;14.90;99.90;;;;;;5030873;28;19929;-69
2022/07/10 05:41:02;;;;;;;;;;;15.00;99.90;;;;;;5030590;28;19991;-70
2022/07/10 05:43:29;;;;;;;;;;;15.00;99.90;;;;;;5030589;28;19933;-70
2022/07/10 05:45:56;;;;;;;;;;;15.10;99.90;;;;;;5030810;28;19965;-70
2022/07/10 05:48:23;;;;;;;;;;;15.10;99.90;;;;;;5030619;28;19929;-70
2022/07/10 05:50:50;;;;;;;;;;;15.10;99.90;;;;;;5030767;28;20383;-70
2022/07/10 05:53:19;;;;;;;;;;;15.10;99.90;;;;;;5030600;28;19932;-69
2022/07/10 05:55:48;;;;;;;;;;;15.10;99.90;;;;;;5030888;28;20406;-70
2022/07/10 05:58:15;;;;;;;;;;;15.20;99.90;;;;;;5030464;28;19925;-70
2022/07/10 06:00:42;;;;;;;;;;;15.20;99.90;;;;;;5030503;28;19925;-70
2022/07/10 06:03:09;;;;;;;;;;;15.30;99.90;;;;;;5030630;28;19925;-70
2022/07/10 06:05:36;;;;;;;;;;;15.30;99.90;;;;;;5030966;28;19925;-70
2022/07/10 06:08:03;;;;;;;;;;;15.40;99.90;;;;;;5032061;28;20566;-70
2022/07/10 06:10:30;;;;;;;;;;;15.50;99.90;;;;;;5037809;28;20287;-70
2022/07/10 06:12:58;;;;;;;;;;;15.40;99.90;;;;;;5054487;28;19924;-70
2022/07/10 06:15:25;;;;;;;;;;;15.40;99.90;;;;;;5054283;28;19970;-70
2022/07/10 06:17:51;;;;;;;;;;;15.50;99.90;;;;;;5054092;28;19932;-70
2022/07/10 06:20:18;;;;;;;;;;;15.50;99.90;;;;;;5054019;28;19925;-69
2022/07/10 06:22:45;;;;;;;;;;;15.70;99.90;;;;;;5054416;28;20521;-70
2022/07/10 06:25:12;;;;;;;;;;;15.70;99.90;;;;;;5054327;28;19933;-70
2022/07/10 06:27:39;;;;;;;;;;;15.80;99.90;;;;;;5054093;28;19924;-70
2022/07/10 06:30:08;;;;;;;;;;;15.90;99.90;;;;;;5053658;28;19929;-70
2022/07/10 06:32:35;;;;;;;;;;;15.90;99.90;;;;;;5053675;28;19975;-70
2022/07/10 06:35:01;;;;;;;;;;;15.90;99.90;;;;;;5054127;28;19925;-70
2022/07/10 06:37:28;;;;;;;;;;;16.00;99.90;;;;;;5053714;28;20027;-71
2022/07/10 06:39:55;;;;;;;;;;;16.10;99.90;;;;;;5053826;28;19929;-70
2022/07/10 06:42:22;;;;;;;;;;;16.10;99.90;;;;;;5053927;28;19925;-70
2022/07/10 06:44:50;;;;;;;;;;;16.10;99.90;;;;;;5053707;28;19960;-70
2022/07/10 06:50:03;;;;;;;;;;;16.10;99.90;;;;;;5053475;28;19932;-71
2022/07/10 06:52:31;;;;;;;;;;;16.10;99.90;;;;;;5053704;28;19924;-70
2022/07/10 06:54:58;;;;;;;;;;;16.20;99.90;;;;;;5053775;28;20339;-70
2022/07/10 06:57:25;;;;;;;;;;;16.30;99.90;;;;;;5053373;28;19931;-70
2022/07/10 06:59:52;;;;;;;;;;;16.30;99.90;;;;;;5053108;28;19929;-71
2022/07/10 07:02:20;;;;;;;;;;;16.40;99.90;;;;;;5053226;28;19924;-70
2022/07/10 07:04:47;;;;;;;;;;;16.40;99.90;;;;;;5053673;28;19925;-70
2022/07/10 07:07:14;;;;;;;;;;;16.50;99.90;;;;;;5052853;28;19935;-72
2022/07/10 07:09:42;;;;;;;;;;;16.70;99.90;;;;;;5052819;28;19925;-70
2022/07/10 07:12:09;;;;;;;;;;;16.80;99.90;;;;;;5035794;28;19965;-70
2022/07/10 07:14:35;;;;;;;;;;;16.80;99.90;;;;;;5033396;28;19925;-70
2022/07/10 07:17:05;;;;;;;;;;;16.60;99.90;;;;;;5033204;28;20332;-71
2022/07/10 07:23:09;;;;;;;;;;;16.60;99.90;;;;;;5031922;28;19932;-70
2022/07/10 07:25:05;;;;;;;;;;;16.70;99.90;;;;;;5033121;28;19943;-70
2022/07/10 07:27:33;;;;;;;;;;;16.70;99.90;;;;;;5033024;28;19975;-70
2022/07/10 07:30:02;;;;;;;;;;;16.70;99.90;;;;;;5032715;28;19925;-70
2022/07/10 07:32:29;;;;;;;;;;;16.80;99.90;;;;;;5032787;28;20348;-70
2022/07/10 07:34:57;;;;;;;;;;;16.70;99.90;;;;;;5032882;28;19987;-70
2022/07/10 07:37:24;;;;;;;;;;;16.90;99.90;;;;;;5032731;28;19929;-72
2022/07/10 07:39:51;;;;;;;;;;;16.90;99.90;;;;;;5032708;28;20023;-70
2022/07/10 07:42:18;;;;;;;;;;;17.00;99.90;;;;;;5032879;28;19934;-70
2022/07/10 07:44:44;;;;;;;;;;;17.20;99.90;;;;;;5032742;28;19929;-70
2022/07/10 07:47:11;;;;;;;;;;;17.30;99.90;;;;;;5032588;28;19937;-70
2022/07/10 07:49:38;;;;;;;;;;;17.30;99.90;;;;;;5031989;28;19929;-72
2022/07/10 07:52:07;;;;;;;;;;;17.50;99.90;;;;;;5032457;28;19932;-70
2022/07/10 07:54:34;;;;;;;;;;;17.50;99.90;;;;;;5032724;28;19925;-70
2022/07/10 07:57:00;;;;;;;;;;;17.70;99.90;;;;;;5032299;28;19925;-70
2022/07/10 07:59:36;;;;;;;;;;;17.70;99.90;;;;;;5031840;28;19925;-70
2022/07/10 08:02:03;;;;;;;;;;;17.70;99.90;;;;;;5032153;28;20356;-70
2022/07/10 08:04:30;;;;;;;;;;;17.80;99.90;;;;;;5032398;28;19929;-70
2022/07/10 08:06:57;;;;;;;;;;;17.80;99.90;;;;;;5031975;28;19925;-70
2022/07/10 08:09:25;;;;;;;;;;;17.80;99.90;;;;;;5031928;28;19932;-70
2022/07/10 08:11:52;;;;;;;;;;;17.80;99.90;;;;;;5046955;28;19924;-70
2022/07/10 08:14:19;;;;;;;;;;;17.90;99.90;;;;;;5051747;28;20347;-70
2022/07/10 08:16:45;;;;;;;;;;;17.90;99.90;;;;;;5052102;28;19925;-70
2022/07/10 08:19:12;;;;;;;;;;;18.10;99.90;;;;;;5051687;28;20392;-70
2022/07/10 08:21:39;;;;;;;;;;;18.10;99.90;;;;;;5051759;28;19929;-70
2022/07/10 08:24:06;;;;;;;;;;;17.90;99.90;;;;;;5051877;28;19982;-70
2022/07/10 08:26:34;;;;;;;;;;;17.90;99.90;;;;;;5051888;28;20285;-69
2022/07/10 08:29:01;;;;;;;;;;;18.10;99.90;;;;;;5051312;28;19929;-69
2022/07/10 08:31:28;;;;;;;;;;;18.30;99.90;;;;;;5051539;28;19947;-69
2022/07/10 08:33:54;;;;;;;;;;;18.20;99.90;;;;;;5051635;28;20470;-70
2022/07/10 08:36:21;;;;;;;;;;;18.30;99.90;;;;;;5051871;28;19925;-70
2022/07/10 08:38:48;;;;;;;;;;;18.40;99.90;;;;;;5051516;28;19936;-68
2022/07/10 08:41:15;;;;;;;;;;;18.40;99.90;;;;;;5051412;28;19929;-69
2022/07/10 08:43:43;;;;;;;;;;;18.40;99.90;;;;;;5051496;28;19932;-70
2022/07/10 08:46:12;;;;;;;;;;;18.60;99.90;;;;;;5051698;28;19925;-70
2022/07/10 08:48:42;;;;;;;;;;;18.50;99.90;;;;;;5051149;28;19960;-70
2022/07/10 08:51:10;;;;;;;;;;;18.30;99.90;;;;;;5051117;28;20422;-69
2022/07/10 08:53:40;;;;;;;;;;;18.40;99.90;;;;;;5051316;28;19925;-70
2022/07/10 08:56:07;;;;;;;;;;;18.80;99.90;;;;;;5051177;28;19929;-70
2022/07/10 08:58:35;;;;;;;;;;;18.70;99.90;;;;;;5051260;28;19929;-70
2022/07/10 09:01:03;;;;;;;;;;;18.70;99.90;;;;;;5050912;28;19932;-69
2022/07/10 09:03:31;;;;;;;;;;;18.50;99.90;;;;;;5051141;28;20012;-70
2022/07/10 09:05:58;;;;;;;;;;;18.60;99.90;;;;;;5050805;28;20414;-69
2022/07/10 09:08:26;;;;;;;;;;;18.40;99.90;;;;;;5050968;28;20320;-69
2022/07/10 09:10:53;;;;;;;;;;;18.70;99.90;;;;;;5044122;28;19932;-69
2022/07/10 09:13:20;;;;;;;;;;;18.70;99.90;;;;;;5031362;28;19950;-69
2022/07/10 09:15:50;;;;;;;;;;;18.90;99.90;;;;;;5031233;28;19925;-69
2022/07/10 09:18:25;;;;;;;;;;;18.70;99.90;;;;;;5031058;28;20389;-69
2022/07/10 09:20:51;;;;;;;;;;;18.30;99.90;;;;;;5030656;28;20000;-69
2022/07/10 09:23:18;;;;;;;;;;;18.30;99.90;;;;;;5031166;28;20443;-69
2022/07/10 09:25:47;;;;;;;;;;;18.40;99.90;;;;;;5031243;28;20000;-69
2022/07/10 09:28:14;;;;;;;;;;;18.30;99.90;;;;;;5030995;28;19925;-69
2022/07/10 09:30:41;;;;;;;;;;;18.40;99.90;;;;;;5031045;28;19932;-69
2022/07/10 09:33:30;;;;;;;;;;;18.50;99.90;;;;;;5030769;28;20311;-69
2022/07/10 09:36:07;;;;;;;;;;;18.50;99.90;;;;;;5031314;28;20035;-70
2022/07/10 09:38:53;;;;;;;;;;;18.50;99.90;;;;;;5031001;28;19925;-69
2022/07/10 09:41:21;;;;;;;;;;;18.50;99.90;;;;;;5030877;28;19957;-68
2022/07/10 09:43:49;;;;;;;;;;;18.30;99.90;;;;;;5034130;28;19929;-70
2022/07/10 09:46:16;;;;;;;;;;;18.00;99.90;;;;;;5034888;28;19932;-70
2022/07/10 09:48:44;;;;;;;;;;;18.00;99.90;;;;;;5034654;28;20028;-69
2022/07/10 09:51:11;;;;;;;;;;;17.90;99.90;;;;;;5034581;28;19925;-69
2022/07/10 09:53:39;;;;;;;;;;;18.00;99.90;;;;;;5034832;28;19925;-70
2022/07/10 09:56:08;;;;;;;;;;;18.10;99.90;;;;;;5034549;28;20023;-69
2022/07/10 09:58:35;;;;;;;;;;;18.00;99.90;;;;;;5034489;28;20377;-69
2022/07/10 10:01:03;;;;;;;;;;;18.00;99.90;;;;;;5034369;28;19960;-70
2022/07/10 10:03:32;;;;;;;;;;;18.00;99.90;;;;;;5034684;28;19960;-70
2022/07/10 10:06:03;;;;;;;;;;;18.10;99.90;;;;;;5034095;28;20396;-69
2022/07/10 10:08:32;;;;;;;;;;;18.20;99.90;;;;;;5034658;28;19925;-70
2022/07/10 10:10:59;;;;;;;;;;;18.40;99.90;;;;;;5034262;28;20408;-69
2022/07/10 10:13:27;;;;;;;;;;;18.70;99.90;;;;;;5034428;28;20004;-69
2022/07/10 10:15:54;;;;;;;;;;;18.90;99.90;;;;;;5034232;28;19925;-69
2022/07/10 10:18:21;;;;;;;;;;;19.20;99.90;;;;;;5034165;28;20404;-69
2022/07/10 10:20:48;;;;;;;;;;;18.90;99.90;;;;;;5033865;28;19929;-70
2022/07/10 10:23:17;;;;;;;;;;;18.90;99.90;;;;;;5034315;28;19928;-70
2022/07/10 10:25:44;;;;;;;;;;;18.90;99.90;;;;;;5034303;28;19925;-70
2022/07/10 10:28:12;;;;;;;;;;;18.80;99.90;;;;;;5033932;28;20380;-71
2022/07/10 10:30:40;;;;;;;;;;;19.10;99.90;;;;;;5033830;28;19925;-69
2022/07/10 10:33:25;;;;;;;;;;;19.70;99.90;;;;;;5033819;28;20373;-70
2022/07/10 10:35:52;;;;;;;;;;;19.80;99.90;;;;;;5034125;28;19932;-70
2022/07/10 10:38:20;;;;;;;;;;;20.20;99.90;;;;;;5033938;28;19929;-70
2022/07/10 10:40:47;;;;;;;;;;;19.90;99.90;;;;;;5033822;28;19928;-70
2022/07/10 10:43:21;;;;;;;;;;;20.10;99.90;;;;;;5033657;28;19925;-70
2022/07/10 10:45:48;;;;;;;;;;;20.20;99.90;;;;;;5034049;28;19925;-69
2022/07/10 10:48:15;;;;;;;;;;;20.60;99.90;;;;;;5033554;28;19925;-70
2022/07/10 10:50:42;;;;;;;;;;;20.50;99.90;;;;;;5033314;28;19925;-70
2022/07/10 10:53:22;;;;;;;;;;;20.70;99.90;;;;;;5033512;28;19925;-70
2022/07/10 10:56:08;;;;;;;;;;;20.40;99.90;;;;;;5033441;28;19932;-70
2022/07/10 10:58:39;;;;;;;;;;;20.30;99.90;;;;;;5033367;28;20444;-70
2022/07/10 11:01:06;;;;;;;;;;;20.30;99.90;;;;;;5033164;28;20385;-70
2022/07/10 11:03:33;;;;;;;;;;;20.50;99.90;;;;;;5033425;28;20278;-70
2022/07/10 11:06:02;;;;;;;;;;;21.20;99.90;;;;;;5033239;28;19940;-70
2022/07/10 11:08:43;;;;;;;;;;;21.00;99.90;;;;;;5033566;28;19925;-70
2022/07/10 11:11:37;;;;;;;;;;;20.60;99.90;;;;;;5041948;28;19925;-69
2022/07/10 11:14:05;;;;;;;;;;;20.80;99.90;;;;;;5006932;28;20025;-70
2022/07/10 11:16:33;;;;;;;;;;;20.30;99.90;;;;;;5053265;28;19924;-70
2022/07/10 11:19:01;;;;;;;;;;;20.10;99.90;;;;;;5052727;28;19924;-70
2022/07/10 11:21:29;;;;;;;;;;;19.70;99.90;;;;;;5053159;28;20050;-70
2022/07/10 11:24:03;;;;;;;;;;;19.50;99.90;;;;;;5052898;28;19924;-71
2022/07/10 11:26:35;;;;;;;;;;;19.40;99.90;;;;;;5052816;28;19928;-70
2022/07/10 11:29:05;;;;;;;;;;;19.30;99.90;;;;;;5052812;28;19928;-71
2022/07/10 11:31:37;;;;;;;;;;;19.50;99.90;;;;;;5052708;28;19925;-70
2022/07/10 11:34:05;;;;;;;;;;;19.90;99.90;;;;;;5053210;28;19936;-71
2022/07/10 11:36:32;;;;;;;;;;;20.00;99.90;;;;;;5052738;28;20342;-71
2022/07/10 11:38:59;;;;;;;;;;;20.00;99.90;;;;;;5052506;28;19972;-70
2022/07/10 11:41:27;;;;;;;;;;;19.80;99.90;;;;;;5052470;28;19929;-70
2022/07/10 11:43:54;;;;;;;;;;;19.80;99.90;;;;;;5052775;28;19932;-70
2022/07/10 11:46:22;;;;;;;;;;;20.10;99.90;;;;;;5052799;28;19932;-70
2022/07/10 11:48:52;;;;;;;;;;;20.10;99.90;;;;;;5052268;28;20023;-70
2022/07/10 11:51:21;;;;;;;;;;;20.20;99.90;;;;;;5052378;28;20395;-70
2022/07/10 11:54:06;;;;;;;;;;;20.50;99.90;;;;;;5052414;28;19925;-70
2022/07/10 11:56:33;;;;;;;;;;;20.40;99.90;;;;;;5039293;28;19925;-70
2022/07/10 11:59:01;;;;;;;;;;;20.60;99.90;;;;;;5052318;28;19925;-70
2022/07/10 12:01:29;;;;;;;;;;;21.50;99.90;;;;;;5051994;28;19932;-71
2022/07/10 12:03:59;;;;;;;;;;;22.40;99.90;;;;;;5051994;28;20295;-70
2022/07/10 12:06:26;;;;;;;;;;;23.40;99.90;;;;;;5051604;28;19928;-71
2022/07/10 12:08:53;;;;;;;;;;;23.90;99.90;;;;;;5051939;28;19924;-68
2022/07/10 12:11:21;;;;;;;;;;;25.10;99.90;;;;;;5041481;28;20340;-70
2022/07/10 12:13:48;;;;;;;;;;;25.90;99.90;;;;;;5032095;28;19929;-69
2022/07/10 12:16:15;;;;;;;;;;;25.40;99.90;;;;;;5032021;28;19929;-68
2022/07/10 12:18:43;;;;;;;;;;;23.90;99.90;;;;;;5032259;28;19925;-69
2022/07/10 12:21:11;;;;;;;;;;;23.40;99.90;;;;;;5031957;28;19932;-69
2022/07/10 12:23:40;;;;;;;;;;;22.40;99.90;;;;;;5031950;28;19936;-69
2022/07/10 12:26:09;;;;;;;;;;;21.60;99.90;;;;;;5031969;28;19925;-70
2022/07/10 12:28:48;;;;;;;;;;;21.20;99.90;;;;;;5032108;28;19925;-68
2022/07/10 12:31:20;;;;;;;;;;;21.30;99.90;;;;;;5032051;28;19961;-70
2022/07/10 12:33:50;;;;;;;;;;;21.70;99.90;;;;;;5032107;28;19929;-69
2022/07/10 12:36:20;;;;;;;;;;;21.50;99.90;;;;;;5031931;28;19932;-70
2022/07/10 12:38:54;;;;;;;;;;;21.10;99.90;;;;;;5031565;28;19947;-68
2022/07/10 12:41:24;;;;;;;;;;;21.00;99.90;;;;;;5031506;28;19971;-69
2022/07/10 12:43:51;;;;;;;;;;;20.50;99.90;;;;;;5031449;28;19925;-69
2022/07/10 12:46:19;;;;;;;;;;;20.20;99.90;;;;;;5031839;28;20417;-70
2022/07/10 12:49:01;;;;;;;;;;;20.20;99.90;;;;;;5031407;28;19925;-68
2022/07/10 12:51:30;;;;;;;;;;;20.20;99.90;;;;;;5031623;28;19932;-69
2022/07/10 12:53:57;;;;;;;;;;;20.40;99.90;;;;;;5031458;28;19925;-70
2022/07/10 12:56:42;;;;;;;;;;;20.30;99.90;;;;;;5031581;28;19929;-70
2022/07/10 12:59:13;;;;;;;;;;;20.40;99.90;;;;;;5030476;28;20462;-69
2022/07/10 13:01:41;;;;;;;;;;;20.90;99.90;;;;;;5031568;28;19964;-69
2022/07/10 13:04:08;;;;;;;;;;;21.20;99.90;;;;;;5031448;28;19925;-68
2022/07/10 13:06:37;;;;;;;;;;;21.60;99.90;;;;;;5031225;28;19933;-69
2022/07/10 13:09:04;;;;;;;;;;;22.30;99.90;;;;;;5031204;28;20385;-70
2022/07/10 13:11:31;;;;;;;;;;;22.70;99.90;;;;;;5043140;28;19924;-69
2022/07/10 13:13:58;;;;;;;;;;;22.40;99.90;;;;;;5051222;28;19925;-69
2022/07/10 13:16:25;;;;;;;;;;;22.10;99.90;;;;;;5050966;28;19951;-69
2022/07/10 13:18:51;;;;;;;;;;;22.20;99.90;;;;;;5050448;28;19925;-68
2022/07/10 13:21:18;;;;;;;;;;;23.50;99.90;;;;;;5051275;28;19929;-69
2022/07/10 13:23:48;;;;;;;;;;;24.00;99.90;;;;;;5051273;28;19932;-70
2022/07/10 13:26:14;;;;;;;;;;;24.10;99.90;;;;;;5051111;28;19925;-69
2022/07/10 13:28:41;;;;;;;;;;;25.80;99.90;;;;;;5050995;28;19925;-70
2022/07/10 13:31:08;;;;;;;;;;;26.40;99.90;;;;;;5050516;28;19932;-69
2022/07/10 13:33:35;;;;;;;;;;;26.10;99.90;;;;;;5051016;28;20008;-69
2022/07/10 13:36:02;;;;;;;;;;;25.70;99.90;;;;;;5051098;28;19925;-69
2022/07/10 13:38:29;;;;;;;;;;;25.40;99.90;;;;;;5050797;28;19929;-69
2022/07/10 13:40:57;;;;;;;;;;;24.20;99.90;;;;;;5050510;28;19924;-70
2022/07/10 13:43:28;;;;;;;;;;;23.40;99.90;;;;;;5050710;28;19925;-69
2022/07/10 13:45:57;;;;;;;;;;;22.60;99.90;;;;;;5050765;28;19925;-69
2022/07/10 13:48:24;;;;;;;;;;;22.10;99.90;;;;;;5050677;28;19929;-69
2022/07/10 13:50:51;;;;;;;;;;;21.60;99.90;;;;;;5050291;28;19928;-69
2022/07/10 13:53:18;;;;;;;;;;;21.30;99.90;;;;;;5050580;28;19928;-69
2022/07/10 13:55:45;;;;;;;;;;;21.10;99.90;;;;;;5050590;28;20276;-68
2022/07/10 13:58:14;;;;;;;;;;;21.10;99.90;;;;;;5050469;28;19924;-69
2022/07/10 14:00:41;;;;;;;;;;;21.40;99.90;;;;;;5065031;22;19925;-68
2022/07/10 14:03:09;;;;;;;;;;;21.70;99.90;;;;;;5030381;28;20389;-66
2022/07/10 14:05:35;;;;;;;;;;;22.00;99.90;;;;;;5030516;28;19925;-66
2022/07/10 14:08:02;;;;;;;;;;;22.20;99.90;;;;;;5030569;28;19925;-65
2022/07/10 14:10:29;;;;;;;;;;;22.00;99.90;;;;;;5033707;28;20338;-66
2022/07/10 14:12:56;;;;;;;;;;;21.80;99.90;;;;;;5050766;28;19925;-67
2022/07/10 14:15:24;;;;;;;;;;;21.70;99.90;;;;;;5050313;28;20293;-66
2022/07/10 14:17:51;;;;;;;;;;;21.70;99.90;;;;;;5050518;28;20440;-66
2022/07/10 14:20:18;;;;;;;;;;;21.80;99.90;;;;;;5050126;28;19948;-69
2022/07/10 14:22:47;;;;;;;;;;;21.70;99.90;;;;;;5050146;28;20354;-66
2022/07/10 14:25:14;;;;;;;;;;;21.70;99.90;;;;;;5050183;28;19924;-67
2022/07/10 14:27:41;;;;;;;;;;;21.80;99.90;;;;;;5050634;28;19967;-67
2022/07/10 14:30:09;;;;;;;;;;;22.00;99.90;;;;;;5053375;28;19924;-67